Portada
METAR-TAF:

METAR-TAF

Aeroports :

Nanning, Xina

latitud: 22-49N, longitud: 108-21E, altitud: 73 m

Observació

L'informe es va fer fa 49 minuts, a les 03:00 UTC
Vent 8 kt del Nord, variant entre Nord/Nord-Oest i Nord-Est
Temperatura 25°C
Humitat 65%
Pressió 1022 hPa
Visibilitat 10 km o més
Núvols disperses a una alçada de 2300 ft

METAR: ZGNN 150300Z 01004MPS 340V050 9999 SCT023 25/18 Q1022 NOSIG

Hora: 11:49 (03:49 UTC)

Pronòstic

L'informe es va fer fa 8 hores i 40 minuts, a les 19:09 UTC
Pronòstic vàlid del 15 a les 00 UTC al 15 a les 24 UTC
Vent 6 kt del Nord/Nord-Est
Visibilitat: 7000 m
Núvols disperses a una alçada de 4000 ft

TAF: ZGNN 141909Z 1500/1524 02003MPS 7000 SCT040 TX26/1507Z TN19/1522Z

Observacions i pronòstics meteorològics de més de 4000 aeroports (METAR i TAF).

Les estacions disponibles són els punts grocs i vermells al mapa.

Posi el ratolí al punt desitjat per veure el nom de l'estació.

Feu clic per veure les observacions i els pronòstics meteorològics.

Per canviar el mapa: feu clic els botons verds amb una creu de color negre per apropar; al botó verd amb un guió per allunyar la imatge; o en les fletxes verdes per a mapes adjacents.


METAR-TAF: